Terminal Aerodrome Forecast
Issued by NWS Sioux Falls, SD

Home | Current Version | Previous Version | Graphics & Text | Print | Product List | Glossary Off
Versions: 1 2 3 4 5 6 7 8 9 10 11 12 13 14 15 16 17 18 19 20 21

000
FTUS43 KFSD 030406 AAA
TAFSUX
TAF AMD
KSUX 030406Z 0304/0324 32008KT P6SM SCT028
     FM031200 12004KT P6SM SCT015 BKN080
     FM031600 17008KT P6SM OVC090
     FM032000 16008KT P6SM OVC025=

USA.gov is the U.S. government's official web portal to all federal, state and local government web resources and services.